createdAt,value
2019-05-13T00:02:14.288Z,86.50
2019-05-13T00:04:44.237Z,86.53
2019-05-13T00:07:13.666Z,87.26
2019-05-13T00:09:44.237Z,86.85
2019-05-13T00:12:13.826Z,85.84
2019-05-13T00:14:43.454Z,84.75
2019-05-13T00:17:14.604Z,83.99
2019-05-13T00:19:44.317Z,85.54
2019-05-13T00:22:14.138Z,89.81
2019-05-13T00:24:44.326Z,91.93
2019-05-13T00:27:14.219Z,93.42
2019-05-13T00:29:44.401Z,94.01
2019-05-13T00:32:14.017Z,94.63
2019-05-13T00:35:03.819Z,94.06
2019-05-13T00:37:51.106Z,93.23
2019-05-13T00:40:39.374Z,92.21
2019-05-13T00:43:27.588Z,90.59
2019-05-13T00:46:15.826Z,89.54
2019-05-13T00:49:04.742Z,89.82
2019-05-13T00:51:53.890Z,90.65
2019-05-13T00:54:44.181Z,91.27
2019-05-13T00:57:31.631Z,91.18
2019-05-13T01:00:20.280Z,90.39
2019-05-13T01:03:08.091Z,89.34
2019-05-13T01:05:56.135Z,88.96
2019-05-13T01:08:44.554Z,87.78
2019-05-13T01:11:34.297Z,88.67
2019-05-13T01:14:23.508Z,90.78
2019-05-13T01:17:14.175Z,91.88
2019-05-13T01:20:03.984Z,93.53
2019-05-13T01:22:51.063Z,95.39
2019-05-13T01:25:39.477Z,95.17
2019-05-13T01:28:27.920Z,94.81
2019-05-13T01:31:16.527Z,93.98
2019-05-13T01:34:07.072Z,93.19
2019-05-13T01:36:55.104Z,91.74
2019-05-13T01:39:43.752Z,91.37
2019-05-13T01:42:33.656Z,92.97
2019-05-13T01:45:24.075Z,92.75
2019-05-13T01:48:14.210Z,93.84
2019-05-13T01:51:03.572Z,94.49
2019-05-13T01:53:52.880Z,94.76
2019-05-13T01:56:39.891Z,95.89
2019-05-13T01:59:28.087Z,96.62
2019-05-13T02:02:17.004Z,97.32
2019-05-13T02:05:05.519Z,96.45
2019-05-13T02:07:59.829Z,95.72
2019-05-13T02:10:56.335Z,94.34
2019-05-13T02:13:44.700Z,94.98
2019-05-13T02:16:33.930Z,95.83
2019-05-13T02:19:24.291Z,95.47
2019-05-13T02:22:14.399Z,95.49
2019-05-13T02:25:00.998Z,94.13
2019-05-13T02:27:49.484Z,93.53
2019-05-13T02:30:37.870Z,90.45
2019-05-13T02:33:25.956Z,89.43
2019-05-13T02:36:14.322Z,88.28
2019-05-13T02:39:02.718Z,88.11
2019-05-13T02:41:52.736Z,87.75
2019-05-13T02:44:43.471Z,88.29
2019-05-13T02:47:33.091Z,89.05
2019-05-13T02:50:22.337Z,88.37
2019-05-13T02:53:08.908Z,87.14
2019-05-13T02:55:57.396Z,88.26
2019-05-13T02:58:46.024Z,92.26
2019-05-13T03:01:34.461Z,94.18
2019-05-13T03:04:23.411Z,95.06
2019-05-13T03:07:11.969Z,95.57
2019-05-13T03:10:03.968Z,96.30
2019-05-13T03:12:53.160Z,95.51
2019-05-13T03:16:04.824Z,94.99
2019-05-13T03:18:52.713Z,93.85
2019-05-13T03:21:43.003Z,90.35
2019-05-13T03:24:32.938Z,90.77
2019-05-13T03:27:20.701Z,90.61
2019-05-13T03:30:08.733Z,90.59
2019-05-13T03:33:02.074Z,89.30
2019-05-13T03:35:46.534Z,89.36
2019-05-13T03:38:53.757Z,91.50
2019-05-13T03:41:26.970Z,92.40
2019-05-13T03:44:16.733Z,92.36
2019-05-13T03:47:05.413Z,91.49
2019-05-13T03:49:56.197Z,90.04
2019-05-13T03:52:43.891Z,89.90
2019-05-13T03:55:34.138Z,88.30
2019-05-13T03:58:23.909Z,89.32
2019-05-13T04:01:13.303Z,90.05
2019-05-13T04:04:03.238Z,89.86
2019-05-13T04:06:53.108Z,87.64
2019-05-13T04:09:42.540Z,87.65
2019-05-13T04:12:33.348Z,87.92
2019-05-13T04:15:23.456Z,85.32
2019-05-13T04:18:12.504Z,83.86
2019-05-13T04:21:02.801Z,84.38
2019-05-13T04:23:49.155Z,82.06
2019-05-13T04:26:37.617Z,83.22
2019-05-13T04:29:25.601Z,83.72
2019-05-13T04:32:14.439Z,83.87
2019-05-13T04:35:03.798Z,83.40
2019-05-13T04:37:52.905Z,83.34
2019-05-13T04:40:42.442Z,82.94
2019-05-13T04:43:34.589Z,83.75
2019-05-13T04:46:22.727Z,83.34
2019-05-13T04:49:12.409Z,79.94
2019-05-13T04:52:02.871Z,80.05
2019-05-13T04:54:48.324Z,80.50
2019-05-13T04:57:36.700Z,80.10
2019-05-13T05:00:50.117Z,79.24
2019-05-13T05:03:45.968Z,77.89
2019-05-13T05:06:53.449Z,79.05
2019-05-13T05:10:13.089Z,77.14
2019-05-13T05:13:09.099Z,77.53
2019-05-13T05:16:14.144Z,78.82
2019-05-13T05:19:06.955Z,81.55
2019-05-13T05:21:58.319Z,84.45
2019-05-13T05:25:06.113Z,82.93
2019-05-13T05:28:06.100Z,78.16
2019-05-13T05:31:11.610Z,75.64
2019-05-13T05:34:18.294Z,74.85
2019-05-13T05:37:14.456Z,71.80
2019-05-13T05:40:03.810Z,72.14
2019-05-13T05:42:52.978Z,72.66
2019-05-13T05:45:41.401Z,73.96
2019-05-13T05:48:31.496Z,72.62
2019-05-13T05:51:21.976Z,68.83
2019-05-13T05:54:14.308Z,67.90
2019-05-13T05:57:01.275Z,71.18
2019-05-13T05:59:51.743Z,72.25
2019-05-13T06:02:42.522Z,73.69
2019-05-13T06:05:12.640Z,75.77
2019-05-13T06:07:42.264Z,75.12
2019-05-13T06:10:11.848Z,75.82
2019-05-13T06:12:42.396Z,75.05
2019-05-13T06:15:12.386Z,75.99
2019-05-13T06:17:41.809Z,77.82
2019-05-13T06:20:13.433Z,76.88
2019-05-13T06:22:42.636Z,77.28
2019-05-13T06:25:14.512Z,75.28
2019-05-13T06:27:43.176Z,75.19
2019-05-13T06:30:12.792Z,73.08
2019-05-13T06:32:42.241Z,73.70
2019-05-13T06:35:11.986Z,73.02
2019-05-13T06:37:41.582Z,68.95
2019-05-13T06:40:12.380Z,70.76
2019-05-13T06:42:41.938Z,70.83
2019-05-13T06:45:12.442Z,68.33
2019-05-13T06:47:41.831Z,70.56
2019-05-13T06:50:11.811Z,70.01
2019-05-13T06:52:42.426Z,71.45
2019-05-13T06:55:12.094Z,70.04
2019-05-13T06:57:42.293Z,71.08
2019-05-13T07:00:12.356Z,70.07
2019-05-13T07:02:42.745Z,70.57
2019-05-13T07:05:12.265Z,70.00
2019-05-13T07:07:42.364Z,68.25
2019-05-13T07:10:12.689Z,68.21
2019-05-13T07:12:42.408Z,68.14
2019-05-13T07:15:11.748Z,68.33
2019-05-13T07:17:41.691Z,67.94
2019-05-13T07:20:11.755Z,68.73
2019-05-13T07:22:42.208Z,67.63
2019-05-13T07:25:11.858Z,67.17
2019-05-13T07:27:42.369Z,66.54
2019-05-13T07:30:11.909Z,65.64
2019-05-13T07:32:42.052Z,64.02
2019-05-13T07:35:14.144Z,66.15
2019-05-13T07:37:42.611Z,64.23
2019-05-13T07:40:12.240Z,65.24
2019-05-13T07:42:42.044Z,63.85
2019-05-13T07:45:12.124Z,64.23
2019-05-13T07:47:42.036Z,62.04
2019-05-13T07:50:12.670Z,64.42
2019-05-13T07:52:42.455Z,63.66
2019-05-13T07:55:12.168Z,62.54
2019-05-13T07:57:42.416Z,64.19
2019-05-13T08:00:12.706Z,66.07
2019-05-13T08:02:42.073Z,66.25
2019-05-13T08:05:12.150Z,67.18
2019-05-13T08:07:42.180Z,66.22
2019-05-13T08:10:11.993Z,66.10
2019-05-13T08:12:41.371Z,66.25
2019-05-13T08:15:12.157Z,65.76
2019-05-13T08:17:47.292Z,65.85
2019-05-13T08:20:12.797Z,64.12
2019-05-13T08:22:42.589Z,65.55
2019-05-13T08:25:12.679Z,63.01
2019-05-13T08:27:42.263Z,65.01
2019-05-13T08:30:12.117Z,62.54
2019-05-13T08:32:42.060Z,53.94
2019-05-13T08:35:12.497Z,54.56
2019-05-13T08:37:41.991Z,54.59
2019-05-13T08:40:12.211Z,53.75
2019-05-13T08:42:41.706Z,51.95
2019-05-13T08:45:12.120Z,53.48
2019-05-13T08:47:42.122Z,51.15
2019-05-13T08:50:12.321Z,50.75
2019-05-13T08:52:42.297Z,52.15
2019-05-13T08:55:15.486Z,54.23
2019-05-13T08:57:42.791Z,55.92
2019-05-13T09:00:13.698Z,57.49
2019-05-13T09:02:43.610Z,56.81
2019-05-13T09:05:14.290Z,58.14
2019-05-13T09:07:43.558Z,58.50
2019-05-13T09:10:12.933Z,57.82
2019-05-13T09:12:43.414Z,56.91
2019-05-13T09:15:12.825Z,54.95
2019-05-13T09:17:42.563Z,48.63
2019-05-13T09:20:12.183Z,50.58
2019-05-13T09:22:41.435Z,47.91
2019-05-13T09:25:12.495Z,48.56
2019-05-13T09:27:42.492Z,46.33
2019-05-13T09:30:12.400Z,46.01
2019-05-13T09:32:42.568Z,45.07
2019-05-13T09:35:12.379Z,44.83
2019-05-13T09:37:42.309Z,45.50
2019-05-13T09:40:11.800Z,44.33
2019-05-13T09:42:49.257Z,43.55
2019-05-13T09:45:12.431Z,44.84
2019-05-13T09:47:42.004Z,45.93
2019-05-13T09:50:28.590Z,46.13
2019-05-13T09:52:48.172Z,46.82
2019-05-13T09:55:26.300Z,44.19
2019-05-13T09:57:48.600Z,46.49
2019-05-13T10:00:18.128Z,45.30
2019-05-13T10:02:47.367Z,46.60
2019-05-13T10:05:16.622Z,45.70
2019-05-13T10:07:45.896Z,45.97
2019-05-13T10:10:16.636Z,45.45
2019-05-13T10:13:07.052Z,45.05
2019-05-13T10:15:16.858Z,43.05
2019-05-13T10:17:46.090Z,42.91
2019-05-13T10:20:16.769Z,43.15
2019-05-13T10:22:46.049Z,43.49
2019-05-13T10:25:16.789Z,43.05
2019-05-13T10:27:46.287Z,43.18
2019-05-13T10:30:15.985Z,44.86
2019-05-13T10:32:45.217Z,44.60
2019-05-13T10:35:14.860Z,43.09
2019-05-13T10:37:45.061Z,42.81
2019-05-13T10:40:15.001Z,43.18
2019-05-13T10:42:44.251Z,44.26
2019-05-13T10:45:13.565Z,44.63
2019-05-13T10:47:42.808Z,43.89
2019-05-13T10:50:12.244Z,43.83
2019-05-13T10:52:42.706Z,43.85
2019-05-13T10:55:12.975Z,43.93
2019-05-13T10:57:42.610Z,43.39
2019-05-13T11:00:12.395Z,43.34
2019-05-13T11:02:42.384Z,45.08
2019-05-13T11:05:12.560Z,43.47
2019-05-13T11:07:42.203Z,45.00
2019-05-13T11:10:13.381Z,44.12
2019-05-13T11:12:42.903Z,44.23
2019-05-13T11:15:12.149Z,44.81
2019-05-13T11:17:42.734Z,45.11
2019-05-13T11:20:12.588Z,45.85
2019-05-13T11:22:42.055Z,44.73
2019-05-13T11:25:12.337Z,45.27
2019-05-13T11:27:42.343Z,44.80
2019-05-13T11:30:11.903Z,47.11
2019-05-13T11:32:42.686Z,45.91
2019-05-13T11:35:13.091Z,45.05
2019-05-13T11:37:43.548Z,45.89
2019-05-13T11:40:14.228Z,46.32
2019-05-13T11:42:43.531Z,46.13
2019-05-13T11:45:13.172Z,47.02
2019-05-13T11:47:42.469Z,48.77
2019-05-13T11:50:12.195Z,49.17
2019-05-13T11:52:42.451Z,48.80
2019-05-13T11:55:13.133Z,50.02
2019-05-13T11:57:44.421Z,48.85
2019-05-13T12:00:14.214Z,49.52
2019-05-13T12:02:49.857Z,48.78
2019-05-13T12:05:15.792Z,50.48
2019-05-13T12:07:45.039Z,50.26
2019-05-13T12:10:14.409Z,50.45
2019-05-13T12:12:44.599Z,51.46
2019-05-13T12:15:28.820Z,50.96
2019-05-13T12:17:45.245Z,51.48
2019-05-13T12:20:14.481Z,50.97
2019-05-13T12:22:44.034Z,49.80
2019-05-13T12:25:14.104Z,50.49
2019-05-13T12:27:43.462Z,50.68
2019-05-13T12:30:12.803Z,50.92
2019-05-13T12:32:43.734Z,49.90
2019-05-13T12:35:13.671Z,50.59
2019-05-13T12:37:43.166Z,50.11
2019-05-13T12:40:12.531Z,49.73
2019-05-13T12:42:46.767Z,49.74
2019-05-13T12:45:14.385Z,50.93
2019-05-13T12:47:43.543Z,50.05
2019-05-13T12:50:13.846Z,49.15
2019-05-13T12:52:43.959Z,49.53
2019-05-13T12:55:14.134Z,50.15
2019-05-13T12:57:43.897Z,50.85
2019-05-13T13:00:13.431Z,51.08
2019-05-13T13:02:49.969Z,51.03
2019-05-13T13:05:19.905Z,51.96
2019-05-13T13:08:12.075Z,50.93
2019-05-13T13:10:16.785Z,49.90
2019-05-13T13:12:47.199Z,51.00
2019-05-13T13:15:36.433Z,50.05
2019-05-13T13:17:47.800Z,49.26
2019-05-13T13:20:17.346Z,49.59
2019-05-13T13:22:46.592Z,50.65
2019-05-13T13:25:16.343Z,51.68
2019-05-13T13:28:08.866Z,50.61
2019-05-13T13:30:16.551Z,50.65
2019-05-13T13:32:46.458Z,51.19
2019-05-13T13:35:16.092Z,51.34
2019-05-13T13:37:46.216Z,51.46
2019-05-13T13:40:24.478Z,50.50
2019-05-13T13:42:53.051Z,49.16
2019-05-13T13:45:22.855Z,49.39
2019-05-13T13:48:02.406Z,50.70
2019-05-13T13:52:53.754Z,51.42
2019-05-13T13:55:25.834Z,49.84
2019-05-13T13:57:56.786Z,50.86
2019-05-13T14:00:38.626Z,51.64
2019-05-13T14:02:56.224Z,48.56
2019-05-13T14:05:25.623Z,49.96
2019-05-13T14:06:58.943Z,49.53
2019-05-13T14:07:54.885Z,51.23
2019-05-13T14:10:24.700Z,50.95
2019-05-13T14:12:54.071Z,50.65
2019-05-13T14:15:23.311Z,51.77
2019-05-13T14:17:52.587Z,50.54
2019-05-13T14:20:22.028Z,50.87
2019-05-13T14:22:57.525Z,51.53
2019-05-13T14:25:22.500Z,51.89
2019-05-13T14:27:52.651Z,51.16
2019-05-13T14:30:22.083Z,50.57
2019-05-13T14:32:52.070Z,50.62
2019-05-13T14:35:22.107Z,51.46
2019-05-13T14:37:52.027Z,51.78
2019-05-13T14:40:22.376Z,50.60
2019-05-13T14:42:52.754Z,52.46
2019-05-13T14:45:23.852Z,53.46
2019-05-13T14:47:53.400Z,53.22
2019-05-13T14:50:22.665Z,53.81
2019-05-13T14:52:52.458Z,54.04
2019-05-13T14:55:21.850Z,54.58
2019-05-13T14:57:52.591Z,55.73
2019-05-13T15:00:22.260Z,56.06
2019-05-13T15:02:51.954Z,56.44
2019-05-13T15:05:22.001Z,56.79
2019-05-13T15:07:52.821Z,57.21
2019-05-13T15:10:22.706Z,57.62
2019-05-13T15:12:52.502Z,57.71
2019-05-13T15:15:22.452Z,58.36
2019-05-13T15:17:52.155Z,58.07
2019-05-13T15:20:21.853Z,57.86
2019-05-13T15:22:51.876Z,57.51
2019-05-13T15:25:22.106Z,58.20
2019-05-13T15:27:53.085Z,58.36
2019-05-13T15:30:22.704Z,58.36
2019-05-13T15:32:56.143Z,57.53
2019-05-13T15:35:22.943Z,57.62
2019-05-13T15:37:53.152Z,58.26
2019-05-13T15:40:22.557Z,58.11
2019-05-13T15:42:51.899Z,58.28
2019-05-13T15:45:21.433Z,58.54
2019-05-13T15:47:51.657Z,59.37
2019-05-13T15:50:21.541Z,60.05
2019-05-13T15:52:51.124Z,59.08
2019-05-13T15:55:21.387Z,59.46
2019-05-13T15:57:51.799Z,60.15
2019-05-13T16:00:22.038Z,60.65
2019-05-13T16:02:52.210Z,60.12
2019-05-13T16:05:21.643Z,61.14
2019-05-13T16:07:52.342Z,61.46
2019-05-13T16:10:21.884Z,61.48
2019-05-13T16:12:52.206Z,61.91
2019-05-13T16:15:21.811Z,61.93
2019-05-13T16:17:53.111Z,62.80
2019-05-13T16:20:22.353Z,62.94
2019-05-13T16:22:52.668Z,63.01
2019-05-13T16:25:22.172Z,62.83
2019-05-13T16:27:52.064Z,63.21
2019-05-13T16:30:22.244Z,63.78
2019-05-13T16:32:52.082Z,64.60
2019-05-13T16:35:21.591Z,64.00
2019-05-13T16:37:51.770Z,65.30
2019-05-13T16:40:22.297Z,65.09
2019-05-13T16:42:52.023Z,64.42
2019-05-13T16:45:21.875Z,63.48
2019-05-13T16:47:57.046Z,64.95
2019-05-13T16:50:22.330Z,65.43
2019-05-13T16:52:53.108Z,67.04
2019-05-13T16:55:24.039Z,67.85
2019-05-13T16:57:53.275Z,68.09
2019-05-13T17:00:22.960Z,69.17
2019-05-13T17:02:52.401Z,70.16
2019-05-13T17:05:23.119Z,71.04
2019-05-13T17:07:52.498Z,70.99
2019-05-13T17:10:22.599Z,71.18
2019-05-13T17:12:52.435Z,71.30
2019-05-13T17:15:22.043Z,71.83
2019-05-13T17:18:08.364Z,71.78
2019-05-13T17:20:28.639Z,72.94
2019-05-13T17:22:57.875Z,72.04
2019-05-13T17:25:27.109Z,73.34
2019-05-13T17:27:56.527Z,72.78
2019-05-13T17:30:28.013Z,69.43
2019-05-13T17:33:02.282Z,69.01
2019-05-13T17:35:32.810Z,68.50
2019-05-13T17:38:02.296Z,67.52
2019-05-13T17:40:31.621Z,68.81
2019-05-13T17:43:01.335Z,67.09
2019-05-13T17:45:31.301Z,68.29
2019-05-13T17:48:01.200Z,72.30
2019-05-13T17:50:31.519Z,69.46
2019-05-13T17:53:02.035Z,69.34
2019-05-13T17:55:32.629Z,69.78
2019-05-13T17:58:01.942Z,71.78
2019-05-13T18:00:32.240Z,71.30
2019-05-13T18:03:02.102Z,73.22
2019-05-13T18:05:31.567Z,75.25
2019-05-13T18:08:01.881Z,76.73
2019-05-13T18:10:31.875Z,77.76
2019-05-13T18:13:01.878Z,78.95
2019-05-13T18:15:31.720Z,81.23
2019-05-13T18:18:01.428Z,82.84
2019-05-13T18:20:32.189Z,83.12
2019-05-13T18:23:01.758Z,86.71
2019-05-13T18:25:31.819Z,89.77
2019-05-13T18:28:01.675Z,92.24
2019-05-13T18:30:31.793Z,92.01
2019-05-13T18:33:01.504Z,94.91
2019-05-13T18:35:31.492Z,96.78
2019-05-13T18:38:01.482Z,97.42
2019-05-13T18:40:31.548Z,97.65
2019-05-13T18:43:03.543Z,99.54
2019-05-13T18:45:32.378Z,100.00
2019-05-13T18:48:01.795Z,100.00
2019-05-13T18:50:33.828Z,100.00
2019-05-13T18:53:09.341Z,100.00
2019-05-13T18:55:43.867Z,100.00
2019-05-13T18:58:16.877Z,100.00
2019-05-13T19:00:52.075Z,100.00
2019-05-13T19:03:28.371Z,100.00
2019-05-13T19:06:02.327Z,100.00
2019-05-13T19:08:41.634Z,100.00
2019-05-13T19:11:11.775Z,100.00
2019-05-13T19:13:41.657Z,100.00
2019-05-13T19:16:11.974Z,100.00
2019-05-13T19:18:42.302Z,100.00
2019-05-13T19:21:11.966Z,100.00
2019-05-13T19:23:42.649Z,100.00
2019-05-13T19:26:11.945Z,100.00
2019-05-13T19:28:41.283Z,100.00
2019-05-13T19:31:11.556Z,100.00
2019-05-13T19:33:41.641Z,100.00
2019-05-13T19:36:11.791Z,100.00
2019-05-13T19:38:43.094Z,100.00
2019-05-13T19:41:12.627Z,100.00
2019-05-13T19:43:42.133Z,100.00
2019-05-13T19:46:13.364Z,100.00
2019-05-13T19:48:42.980Z,100.00
2019-05-13T19:51:12.340Z,100.00
2019-05-13T19:53:44.555Z,100.00
2019-05-13T19:56:12.879Z,100.00
2019-05-13T19:58:42.123Z,100.00
2019-05-13T20:01:11.778Z,100.00
2019-05-13T20:03:42.341Z,100.00
2019-05-13T20:06:12.296Z,100.00
2019-05-13T20:08:41.666Z,100.00
2019-05-13T20:11:11.483Z,100.00
2019-05-13T20:13:41.782Z,100.00
2019-05-13T20:16:11.842Z,100.00
2019-05-13T20:18:41.554Z,100.00
2019-05-13T20:21:13.490Z,100.00
2019-05-13T20:23:42.114Z,100.00
2019-05-13T20:26:11.475Z,100.00
2019-05-13T20:28:42.025Z,100.00
2019-05-13T20:31:15.139Z,100.00
2019-05-13T20:33:45.916Z,100.00
2019-05-13T20:36:15.221Z,100.00
2019-05-13T20:38:44.487Z,100.00
2019-05-13T20:41:13.729Z,100.00
2019-05-13T20:43:42.990Z,100.00
2019-05-13T20:46:12.260Z,100.00
2019-05-13T20:48:41.504Z,100.00
2019-05-13T20:51:11.343Z,100.00
2019-05-13T20:53:41.302Z,100.00
2019-05-13T20:56:10.901Z,100.00
2019-05-13T20:58:42.031Z,100.00
2019-05-13T21:01:11.221Z,100.00
2019-05-13T21:03:41.945Z,100.00
2019-05-13T21:06:11.780Z,100.00
2019-05-13T21:08:41.563Z,100.00
2019-05-13T21:11:11.559Z,100.00
2019-05-13T21:13:41.313Z,100.00
2019-05-13T21:16:11.395Z,100.00
2019-05-13T21:18:42.135Z,100.00
2019-05-13T21:21:11.949Z,100.00
2019-05-13T21:23:41.819Z,100.00
2019-05-13T21:26:15.038Z,100.00
2019-05-13T21:28:42.307Z,100.00
2019-05-13T21:31:11.765Z,100.00
2019-05-13T21:33:41.000Z,100.00
2019-05-13T21:36:12.270Z,100.00
2019-05-13T21:38:41.625Z,100.00
2019-05-13T21:41:11.763Z,100.00
2019-05-13T21:43:41.507Z,100.00
2019-05-13T21:46:12.021Z,100.00
2019-05-13T21:48:41.701Z,100.00
2019-05-13T21:51:13.489Z,100.00
2019-05-13T21:53:42.287Z,100.00
2019-05-13T21:56:12.170Z,100.00
2019-05-13T21:58:41.731Z,100.00
2019-05-13T22:01:11.105Z,100.00
2019-05-13T22:03:42.001Z,100.00
2019-05-13T22:06:11.252Z,100.00
2019-05-13T22:08:41.291Z,100.00
2019-05-13T22:11:12.023Z,100.00
2019-05-13T22:13:42.043Z,100.00
2019-05-13T22:16:11.347Z,100.00
2019-05-13T22:18:41.808Z,100.00
2019-05-13T22:21:11.837Z,100.00
2019-05-13T22:23:41.305Z,100.00
2019-05-13T22:26:11.716Z,100.00
2019-05-13T22:28:43.706Z,100.00
2019-05-13T22:31:12.944Z,100.00
2019-05-13T22:33:45.107Z,100.00
2019-05-13T22:36:13.151Z,100.00
2019-05-13T22:38:42.738Z,100.00
2019-05-13T22:41:12.023Z,100.00
2019-05-13T22:43:54.654Z,100.00
2019-05-13T22:46:14.258Z,100.00
2019-05-13T22:48:43.018Z,100.00
2019-05-13T22:51:12.446Z,100.00
2019-05-13T22:53:42.183Z,100.00
2019-05-13T22:56:11.836Z,100.00
2019-05-13T22:58:41.272Z,100.00
2019-05-13T23:01:11.560Z,100.00
2019-05-13T23:03:41.283Z,100.00
2019-05-13T23:06:12.069Z,100.00
2019-05-13T23:08:41.727Z,100.00
2019-05-13T23:11:11.098Z,100.00
2019-05-13T23:13:42.196Z,100.00
2019-05-13T23:16:11.603Z,100.00
2019-05-13T23:18:42.120Z,100.00
2019-05-13T23:21:11.810Z,100.00
2019-05-13T23:23:41.051Z,100.00
2019-05-13T23:26:11.870Z,100.00
2019-05-13T23:28:41.648Z,100.00
2019-05-13T23:31:12.345Z,100.00
2019-05-13T23:33:41.801Z,100.00
2019-05-13T23:36:11.944Z,100.00
2019-05-13T23:38:41.576Z,100.00
2019-05-13T23:41:11.528Z,100.00
2019-05-13T23:43:40.968Z,100.00
2019-05-13T23:46:11.734Z,100.00
2019-05-13T23:48:41.360Z,100.00
2019-05-13T23:51:13.009Z,100.00
2019-05-13T23:53:41.871Z,100.00
2019-05-13T23:56:11.257Z,100.00
2019-05-13T23:58:41.359Z,100.00
